createdAt,value
2022-09-11T00:02:05.051Z,88.16
2022-09-11T00:04:33.596Z,88.16
2022-09-11T00:07:01.555Z,88.20
2022-09-11T00:09:29.514Z,88.19
2022-09-11T00:11:57.538Z,88.19
2022-09-11T00:14:28.954Z,88.23
2022-09-11T00:16:59.119Z,88.20
2022-09-11T00:19:30.111Z,88.17
2022-09-11T00:21:58.033Z,88.15
2022-09-11T00:24:25.763Z,88.05
2022-09-11T00:26:53.473Z,88.08
2022-09-11T00:29:23.421Z,88.04
2022-09-11T00:31:51.977Z,87.99
2022-09-11T00:34:20.202Z,88.05
2022-09-11T00:36:50.292Z,88.12
2022-09-11T00:39:18.716Z,88.19
2022-09-11T00:41:49.596Z,88.04
2022-09-11T00:44:18.894Z,88.15
2022-09-11T00:46:55.833Z,88.27
2022-09-11T00:49:36.794Z,88.29
2022-09-11T00:52:10.645Z,88.24
2022-09-11T00:54:46.575Z,88.36
2022-09-11T00:57:14.440Z,88.51
2022-09-11T00:59:45.825Z,88.54
2022-09-11T01:02:23.222Z,88.56
2022-09-11T01:04:55.643Z,88.55
2022-09-11T01:07:26.634Z,88.49
2022-09-11T01:09:57.342Z,88.52
2022-09-11T01:12:43.946Z,88.58
2022-09-11T01:15:44.030Z,88.54
2022-09-11T01:18:15.595Z,88.64
2022-09-11T01:20:53.776Z,88.67
2022-09-11T01:24:01.052Z,88.61
2022-09-11T01:27:01.984Z,88.71
2022-09-11T01:29:44.928Z,88.77
2022-09-11T01:32:21.939Z,88.76
2022-09-11T01:35:14.792Z,88.78
2022-09-11T01:37:52.925Z,88.73
2022-09-11T01:40:54.904Z,88.63
2022-09-11T01:43:30.709Z,88.59
2022-09-11T01:46:03.601Z,88.49
2022-09-11T01:48:48.869Z,88.53
2022-09-11T01:51:27.299Z,88.40
2022-09-11T01:54:00.642Z,88.25
2022-09-11T01:56:41.446Z,88.12
2022-09-11T01:59:12.819Z,88.22
2022-09-11T02:01:47.272Z,88.15
2022-09-11T02:04:26.244Z,88.02
2022-09-11T02:07:03.185Z,87.87
2022-09-11T02:09:41.950Z,87.74
2022-09-11T02:12:17.778Z,87.64
2022-09-11T02:14:50.071Z,87.51
2022-09-11T02:17:31.632Z,87.45
2022-09-11T02:20:03.246Z,87.37
2022-09-11T02:22:33.446Z,87.27
2022-09-11T02:25:04.776Z,87.20
2022-09-11T02:27:34.999Z,87.24
2022-09-11T02:30:03.282Z,87.45
2022-09-11T02:32:40.807Z,87.29
2022-09-11T02:35:11.766Z,87.40
2022-09-11T02:37:59.275Z,87.30
2022-09-11T02:40:31.130Z,87.24
2022-09-11T02:43:27.595Z,87.32
2022-09-11T02:46:54.271Z,87.21
2022-09-11T02:49:41.999Z,87.20
2022-09-11T02:52:26.791Z,87.34
2022-09-11T02:54:56.197Z,87.34
2022-09-11T02:57:33.216Z,87.13
2022-09-11T03:00:07.140Z,87.13
2022-09-11T03:02:40.558Z,87.36
2022-09-11T03:05:11.774Z,87.13
2022-09-11T03:07:41.844Z,87.34
2022-09-11T03:10:12.163Z,87.32
2022-09-11T03:12:42.242Z,87.39
2022-09-11T03:15:17.444Z,87.37
2022-09-11T03:17:45.179Z,87.26
2022-09-11T03:20:13.130Z,87.30
2022-09-11T03:22:41.711Z,87.32
2022-09-11T03:25:14.283Z,87.25
2022-09-11T03:27:42.296Z,87.30
2022-09-11T03:30:14.831Z,87.22
2022-09-11T03:32:44.876Z,87.42
2022-09-11T03:35:12.603Z,87.26
2022-09-11T03:37:40.551Z,87.30
2022-09-11T03:40:10.989Z,87.35
2022-09-11T03:42:41.116Z,87.27
2022-09-11T03:45:12.105Z,87.28
2022-09-11T03:47:42.415Z,87.28
2022-09-11T03:50:11.890Z,87.37
2022-09-11T03:52:40.581Z,87.32
2022-09-11T03:55:10.899Z,87.53
2022-09-11T03:57:41.224Z,87.73
2022-09-11T04:00:11.859Z,87.64
2022-09-11T04:02:44.571Z,87.74
2022-09-11T04:05:12.482Z,87.88
2022-09-11T04:07:40.169Z,87.94
2022-09-11T04:10:13.112Z,87.64
2022-09-11T04:12:44.223Z,87.51
2022-09-11T04:15:12.223Z,87.57
2022-09-11T04:17:44.016Z,87.58
2022-09-11T04:20:12.003Z,87.66
2022-09-11T04:22:43.641Z,87.87
2022-09-11T04:25:16.629Z,87.87
2022-09-11T04:27:45.282Z,87.74
2022-09-11T04:30:15.350Z,87.93
2022-09-11T04:32:46.309Z,87.99
2022-09-11T04:35:16.654Z,87.78
2022-09-11T04:37:46.974Z,87.78
2022-09-11T04:40:15.843Z,87.82
2022-09-11T04:42:44.384Z,87.73
2022-09-11T04:45:14.781Z,87.74
2022-09-11T04:47:46.575Z,87.73
2022-09-11T04:50:14.361Z,87.85
2022-09-11T04:52:47.220Z,87.73
2022-09-11T04:55:17.644Z,87.81
2022-09-11T04:57:45.307Z,87.94
2022-09-11T05:00:17.987Z,87.80
2022-09-11T05:02:50.061Z,87.72
2022-09-11T05:05:20.375Z,87.74
2022-09-11T05:07:51.856Z,87.62
2022-09-11T05:10:22.191Z,87.51
2022-09-11T05:12:53.291Z,87.48
2022-09-11T05:15:21.209Z,87.47
2022-09-11T05:17:48.896Z,87.67
2022-09-11T05:20:19.139Z,87.60
2022-09-11T05:22:49.494Z,87.63
2022-09-11T05:25:19.529Z,87.79
2022-09-11T05:27:51.959Z,87.62
2022-09-11T05:30:20.638Z,87.56
2022-09-11T05:32:56.802Z,87.54
2022-09-11T05:35:30.448Z,87.53
2022-09-11T05:38:02.298Z,87.70
2022-09-11T05:40:32.661Z,87.71
2022-09-11T05:43:01.166Z,87.68
2022-09-11T05:45:34.276Z,87.62
2022-09-11T05:48:04.530Z,87.66
2022-09-11T05:50:37.129Z,87.60
2022-09-11T05:53:07.374Z,87.58
2022-09-11T05:55:37.605Z,87.50
2022-09-11T05:58:09.155Z,87.47
2022-09-11T06:00:37.106Z,87.42
2022-09-11T06:03:08.685Z,87.22
2022-09-11T06:05:38.534Z,87.14
2022-09-11T06:08:13.119Z,87.07
2022-09-11T06:10:48.995Z,87.03
2022-09-11T06:13:20.155Z,86.95
2022-09-11T06:15:50.161Z,86.88
2022-09-11T06:18:18.177Z,86.79
2022-09-11T06:20:55.860Z,86.68
2022-09-11T06:23:27.281Z,86.52
2022-09-11T06:26:03.583Z,86.38
2022-09-11T06:28:35.392Z,86.27
2022-09-11T06:31:05.971Z,86.21
2022-09-11T06:33:40.591Z,86.05
2022-09-11T06:36:14.115Z,85.92
2022-09-11T06:38:46.095Z,85.81
2022-09-11T06:41:16.471Z,85.66
2022-09-11T06:43:45.599Z,85.57
2022-09-11T06:46:19.146Z,85.48
2022-09-11T06:48:51.515Z,85.41
2022-09-11T06:51:23.664Z,85.29
2022-09-11T06:53:58.164Z,85.25
2022-09-11T06:56:34.826Z,85.28
2022-09-11T06:59:03.531Z,85.23
2022-09-11T07:01:33.761Z,85.15
2022-09-11T07:04:05.355Z,85.13
2022-09-11T07:06:37.053Z,85.12
2022-09-11T07:09:04.910Z,85.12
2022-09-11T07:11:36.767Z,85.08
2022-09-11T07:14:08.779Z,85.15
2022-09-11T07:16:37.753Z,85.16
2022-09-11T07:19:10.555Z,85.11
2022-09-11T07:21:39.566Z,84.99
2022-09-11T07:24:07.614Z,84.88
2022-09-11T07:26:36.695Z,84.80
2022-09-11T07:29:05.459Z,84.81
2022-09-11T07:31:34.751Z,84.84
2022-09-11T07:34:03.642Z,84.87
2022-09-11T07:36:35.921Z,84.93
2022-09-11T07:39:06.527Z,84.99
2022-09-11T07:41:35.036Z,84.87
2022-09-11T07:44:04.712Z,84.76
2022-09-11T07:46:38.395Z,84.79
2022-09-11T07:49:12.546Z,84.80
2022-09-11T07:51:43.733Z,84.85
2022-09-11T07:54:15.651Z,84.93
2022-09-11T07:56:43.512Z,84.98
2022-09-11T07:59:11.380Z,85.06
2022-09-11T08:01:42.658Z,85.18
2022-09-11T08:04:14.478Z,85.22
2022-09-11T08:06:47.371Z,85.18
2022-09-11T08:09:16.005Z,85.17
2022-09-11T08:11:50.058Z,85.14
2022-09-11T08:14:20.587Z,85.12
2022-09-11T08:16:51.480Z,85.10
2022-09-11T08:19:25.160Z,85.01
2022-09-11T08:21:54.098Z,85.01
2022-09-11T08:24:25.338Z,85.06
2022-09-11T08:27:04.547Z,85.07
2022-09-11T08:29:32.561Z,85.12
2022-09-11T08:32:02.563Z,85.17
2022-09-11T08:34:32.657Z,85.23
2022-09-11T08:37:00.711Z,85.23
2022-09-11T08:39:32.747Z,85.23
2022-09-11T08:42:16.808Z,85.43
2022-09-11T08:44:58.896Z,85.39
2022-09-11T08:47:34.703Z,85.27
2022-09-11T08:50:24.733Z,85.17
2022-09-11T08:52:56.895Z,84.99
2022-09-11T08:55:49.574Z,84.94
2022-09-11T08:58:39.219Z,84.62
2022-09-11T09:01:29.154Z,84.55
2022-09-11T09:04:41.789Z,84.35
2022-09-11T09:07:47.205Z,84.07
2022-09-11T09:10:47.175Z,83.94
2022-09-11T09:13:29.866Z,83.97
2022-09-11T09:16:26.844Z,83.94
2022-09-11T09:19:08.599Z,83.95
2022-09-11T09:21:39.984Z,83.84
2022-09-11T09:24:21.981Z,83.46
2022-09-11T09:26:58.987Z,83.30
2022-09-11T09:29:36.145Z,82.95
2022-09-11T09:32:15.206Z,82.59
2022-09-11T09:34:46.177Z,82.29
2022-09-11T09:37:22.927Z,82.04
2022-09-11T09:39:52.442Z,82.05
2022-09-11T09:42:31.215Z,82.04
2022-09-11T09:45:22.192Z,81.60
2022-09-11T09:47:51.180Z,81.61
2022-09-11T09:50:45.708Z,81.74
2022-09-11T09:53:29.136Z,81.75
2022-09-11T09:56:00.850Z,81.46
2022-09-11T09:58:39.898Z,81.37
2022-09-11T10:01:46.697Z,81.35
2022-09-11T10:04:16.021Z,81.23
2022-09-11T10:06:46.907Z,81.32
2022-09-11T10:09:23.922Z,81.32
2022-09-11T10:12:03.461Z,81.13
2022-09-11T10:14:51.201Z,81.04
2022-09-11T10:17:33.904Z,81.13
2022-09-11T10:20:23.777Z,81.30
2022-09-11T10:22:55.258Z,81.48
2022-09-11T10:25:30.226Z,81.68
2022-09-11T10:28:31.545Z,81.86
2022-09-11T10:31:08.864Z,81.95
2022-09-11T10:34:05.170Z,82.01
2022-09-11T10:36:35.152Z,82.07
2022-09-11T10:39:03.534Z,82.21
2022-09-11T10:41:35.310Z,82.35
2022-09-11T10:44:14.373Z,82.47
2022-09-11T10:46:43.972Z,82.04
2022-09-11T10:49:11.672Z,81.81
2022-09-11T10:51:47.349Z,81.42
2022-09-11T10:54:34.983Z,80.84
2022-09-11T10:57:26.411Z,80.20
2022-09-11T11:00:22.837Z,80.03
2022-09-11T11:03:11.156Z,79.73
2022-09-11T11:05:42.046Z,79.92
2022-09-11T11:08:17.812Z,80.38
2022-09-11T11:11:04.294Z,80.66
2022-09-11T11:13:51.876Z,80.97
2022-09-11T11:16:47.747Z,80.97
2022-09-11T11:19:38.388Z,81.37
2022-09-11T11:22:13.543Z,81.65
2022-09-11T11:24:53.223Z,81.77
2022-09-11T11:27:45.168Z,81.97
2022-09-11T11:30:20.115Z,82.10
2022-09-11T11:33:10.144Z,82.07
2022-09-11T11:36:09.003Z,82.03
2022-09-11T11:38:49.032Z,81.48
2022-09-11T11:41:28.519Z,81.52
2022-09-11T11:44:01.782Z,81.44
2022-09-11T11:46:39.468Z,81.38
2022-09-11T11:49:24.417Z,80.66
2022-09-11T11:52:15.053Z,79.91
2022-09-11T11:54:52.423Z,79.58
2022-09-11T11:57:24.141Z,78.51
2022-09-11T12:00:13.849Z,78.38
2022-09-11T12:03:03.821Z,78.17
2022-09-11T12:05:34.723Z,77.80
2022-09-11T12:08:03.552Z,77.55
2022-09-11T12:10:39.085Z,77.44
2022-09-11T12:13:12.882Z,77.31
2022-09-11T12:16:10.692Z,77.35
2022-09-11T12:18:42.789Z,76.57
2022-09-11T12:21:32.424Z,75.70
2022-09-11T12:24:02.855Z,75.01
2022-09-11T12:26:32.206Z,75.52
2022-09-11T12:29:16.333Z,76.00
2022-09-11T12:31:51.052Z,75.51
2022-09-11T12:34:25.921Z,75.39
2022-09-11T12:37:12.411Z,75.47
2022-09-11T12:39:57.150Z,75.11
2022-09-11T12:42:26.240Z,74.90
2022-09-11T12:44:56.251Z,74.68
2022-09-11T12:47:35.750Z,74.09
2022-09-11T12:50:06.718Z,74.14
2022-09-11T12:52:44.433Z,74.23
2022-09-11T12:55:50.694Z,74.20
2022-09-11T12:58:19.975Z,74.12
2022-09-11T13:01:02.900Z,73.91
2022-09-11T13:03:34.761Z,73.56
2022-09-11T13:06:13.788Z,74.06
2022-09-11T13:09:01.201Z,73.43
2022-09-11T13:11:50.786Z,73.20
2022-09-11T13:14:46.077Z,73.51
2022-09-11T13:17:26.855Z,73.56
2022-09-11T13:20:09.595Z,73.41
2022-09-11T13:22:38.729Z,73.81
2022-09-11T13:25:15.439Z,73.88
2022-09-11T13:28:02.896Z,73.69
2022-09-11T13:30:30.904Z,74.07
2022-09-11T13:33:07.167Z,74.58
2022-09-11T13:35:40.881Z,75.26
2022-09-11T13:38:16.966Z,75.86
2022-09-11T13:40:59.446Z,76.52
2022-09-11T13:43:31.696Z,76.90
2022-09-11T13:46:24.456Z,77.23
2022-09-11T13:48:57.884Z,77.45
2022-09-11T13:51:31.396Z,78.32
2022-09-11T13:54:09.419Z,78.89
2022-09-11T13:56:46.585Z,79.31
2022-09-11T13:59:45.013Z,79.50
2022-09-11T14:02:16.929Z,79.59
2022-09-11T14:04:47.373Z,80.05
2022-09-11T14:07:28.014Z,80.39
2022-09-11T14:10:24.637Z,79.94
2022-09-11T14:13:23.296Z,80.11
2022-09-11T14:15:58.790Z,80.12
2022-09-11T14:18:53.166Z,80.33
2022-09-11T14:21:31.165Z,80.55
2022-09-11T14:24:00.094Z,80.55
2022-09-11T14:26:30.918Z,80.52
2022-09-11T14:29:23.692Z,80.78
2022-09-11T14:31:54.340Z,80.91
2022-09-11T14:34:27.502Z,81.01
2022-09-11T14:37:05.444Z,81.06
2022-09-11T14:39:41.812Z,81.41
2022-09-11T14:42:16.348Z,81.46
2022-09-11T14:44:45.102Z,81.59
2022-09-11T14:47:18.321Z,81.87
2022-09-11T14:49:48.308Z,81.93
2022-09-11T14:52:20.600Z,81.94
2022-09-11T14:54:49.715Z,81.96
2022-09-11T14:57:23.338Z,82.02
2022-09-11T14:59:53.022Z,82.11
2022-09-11T15:02:24.094Z,82.16
2022-09-11T15:04:57.249Z,82.37
2022-09-11T15:07:27.596Z,82.43
2022-09-11T15:09:56.346Z,82.42
2022-09-11T15:12:24.999Z,82.37
2022-09-11T15:14:57.630Z,82.28
2022-09-11T15:17:32.005Z,82.47
2022-09-11T15:20:01.784Z,82.60
2022-09-11T15:22:32.084Z,82.50
2022-09-11T15:25:01.174Z,82.53
2022-09-11T15:27:31.688Z,82.61
2022-09-11T15:30:01.539Z,82.37
2022-09-11T15:32:29.694Z,82.41
2022-09-11T15:34:59.202Z,82.44
2022-09-11T15:37:26.988Z,82.59
2022-09-11T15:39:55.367Z,82.69
2022-09-11T15:42:26.506Z,82.52
2022-09-11T15:44:57.123Z,82.27
2022-09-11T15:47:25.103Z,82.27
2022-09-11T15:49:53.676Z,82.25
2022-09-11T15:52:23.481Z,82.13
2022-09-11T15:54:52.255Z,82.07
2022-09-11T15:57:20.925Z,82.13
2022-09-11T15:59:52.613Z,82.26
2022-09-11T16:02:24.157Z,82.64
2022-09-11T16:04:54.650Z,82.68
2022-09-11T16:07:23.235Z,82.74
2022-09-11T16:09:53.200Z,83.09
2022-09-11T16:12:21.155Z,83.15
2022-09-11T16:14:51.386Z,83.26
2022-09-11T16:17:21.745Z,83.59
2022-09-11T16:19:51.623Z,83.56
2022-09-11T16:22:19.561Z,83.37
2022-09-11T16:24:47.309Z,83.22
2022-09-11T16:27:15.029Z,83.10
2022-09-11T16:30:26.207Z,83.03
2022-09-11T16:32:39.101Z,82.86
2022-09-11T16:35:13.343Z,82.75
2022-09-11T16:37:42.628Z,82.67
2022-09-11T16:40:12.263Z,82.63
2022-09-11T16:42:41.706Z,82.65
2022-09-11T16:45:11.125Z,82.73
2022-09-11T16:47:40.349Z,82.72
2022-09-11T16:50:09.531Z,82.73
2022-09-11T16:52:39.617Z,82.78
2022-09-11T16:55:12.943Z,82.81
2022-09-11T16:57:40.934Z,82.84
2022-09-11T17:00:10.879Z,82.88
2022-09-11T17:02:43.931Z,82.92
2022-09-11T17:05:13.037Z,82.94
2022-09-11T17:07:42.899Z,83.06
2022-09-11T17:10:10.857Z,83.22
2022-09-11T17:12:39.769Z,83.32
2022-09-11T17:15:09.500Z,83.38
2022-09-11T17:17:39.077Z,83.41
2022-09-11T17:20:11.727Z,83.44
2022-09-11T17:22:41.167Z,83.54
2022-09-11T17:25:12.923Z,83.75
2022-09-11T17:27:43.507Z,83.82
2022-09-11T17:30:14.260Z,83.83
2022-09-11T17:32:45.833Z,83.89
2022-09-11T17:35:15.368Z,83.80
2022-09-11T17:37:46.066Z,83.87
2022-09-11T17:40:15.878Z,83.90
2022-09-11T17:42:49.311Z,83.84
2022-09-11T17:45:17.427Z,83.87
2022-09-11T17:47:45.450Z,83.92
2022-09-11T17:50:15.483Z,83.92
2022-09-11T17:52:45.823Z,84.05
2022-09-11T17:55:13.863Z,84.01
2022-09-11T17:57:44.454Z,84.09
2022-09-11T18:00:14.504Z,84.18
2022-09-11T18:02:44.825Z,84.22
2022-09-11T18:05:12.715Z,84.11
2022-09-11T18:07:43.464Z,84.16
2022-09-11T18:10:11.521Z,84.21
2022-09-11T18:12:39.467Z,84.23
2022-09-11T18:15:09.801Z,84.17
2022-09-11T18:17:39.644Z,84.11
2022-09-11T18:20:09.667Z,83.99
2022-09-11T18:22:40.287Z,83.97
2022-09-11T18:25:11.530Z,84.23
2022-09-11T18:27:41.161Z,84.30
2022-09-11T18:30:12.848Z,84.47
2022-09-11T18:32:42.931Z,84.14
2022-09-11T18:35:12.098Z,84.09
2022-09-11T18:37:40.602Z,84.12
2022-09-11T18:40:10.541Z,84.34
2022-09-11T18:42:44.084Z,84.44
2022-09-11T18:45:14.331Z,84.30
2022-09-11T18:47:45.677Z,84.32
2022-09-11T18:50:13.864Z,84.25
2022-09-11T18:52:42.463Z,84.22
2022-09-11T18:55:11.170Z,84.15
2022-09-11T18:57:43.072Z,84.03
2022-09-11T19:00:17.396Z,83.96
2022-09-11T19:02:48.232Z,83.94
2022-09-11T19:05:18.039Z,83.80
2022-09-11T19:07:48.779Z,83.77
2022-09-11T19:10:19.202Z,83.71
2022-09-11T19:12:48.802Z,83.72
2022-09-11T19:15:19.607Z,83.71
2022-09-11T19:17:49.321Z,83.70
2022-09-11T19:20:19.894Z,83.56
2022-09-11T19:22:48.950Z,83.41
2022-09-11T19:25:19.303Z,83.32
2022-09-11T19:27:48.224Z,83.08
2022-09-11T19:30:16.838Z,82.94
2022-09-11T19:32:45.870Z,82.61
2022-09-11T19:35:15.096Z,82.53
2022-09-11T19:37:43.508Z,82.20
2022-09-11T19:40:14.233Z,82.00
2022-09-11T19:42:44.901Z,82.05
2022-09-11T19:45:12.594Z,82.02
2022-09-11T19:47:43.554Z,81.89
2022-09-11T19:50:13.254Z,81.81
2022-09-11T19:52:41.253Z,81.68
2022-09-11T19:55:10.414Z,81.58
2022-09-11T19:57:40.595Z,81.63
2022-09-11T20:00:10.290Z,81.60
2022-09-11T20:02:38.397Z,81.48
2022-09-11T20:05:11.894Z,81.27
2022-09-11T20:07:39.659Z,81.16
2022-09-11T20:10:10.604Z,81.25
2022-09-11T20:12:38.597Z,81.24
2022-09-11T20:15:10.213Z,81.24
2022-09-11T20:17:42.417Z,81.26
2022-09-11T20:20:11.899Z,81.27
2022-09-11T20:22:39.882Z,81.30
2022-09-11T20:25:08.569Z,81.36
2022-09-11T20:27:36.342Z,81.43
2022-09-11T20:30:10.732Z,81.53
2022-09-11T20:32:39.476Z,81.54
2022-09-11T20:35:07.990Z,81.56
2022-09-11T20:37:40.362Z,81.56
2022-09-11T20:40:11.920Z,81.56
2022-09-11T20:42:40.132Z,81.58
2022-09-11T20:45:13.791Z,81.58
2022-09-11T20:47:41.566Z,81.66
2022-09-11T20:50:13.414Z,81.72
2022-09-11T20:52:47.790Z,81.76
2022-09-11T20:55:15.855Z,81.76
2022-09-11T20:57:47.633Z,81.86
2022-09-11T21:00:18.209Z,82.04
2022-09-11T21:02:46.110Z,81.99
2022-09-11T21:05:15.844Z,82.16
2022-09-11T21:07:47.613Z,82.19
2022-09-11T21:10:15.344Z,82.16
2022-09-11T21:12:43.265Z,82.21
2022-09-11T21:15:13.305Z,82.39
2022-09-11T21:17:41.038Z,82.41
2022-09-11T21:20:12.936Z,82.43
2022-09-11T21:22:42.465Z,82.50
2022-09-11T21:25:12.144Z,82.57
2022-09-11T21:27:40.126Z,82.69
2022-09-11T21:30:12.204Z,82.74
2022-09-11T21:32:40.160Z,82.96
2022-09-11T21:35:09.813Z,83.14
2022-09-11T21:37:40.590Z,83.50
2022-09-11T21:40:12.241Z,83.46
2022-09-11T21:42:40.217Z,83.32
2022-09-11T21:45:11.761Z,83.47
2022-09-11T21:47:39.808Z,83.53
2022-09-11T21:50:11.578Z,83.48
2022-09-11T21:52:39.723Z,83.51
2022-09-11T21:55:11.439Z,83.55
2022-09-11T21:57:39.455Z,83.55
2022-09-11T22:00:12.828Z,83.61
2022-09-11T22:02:41.664Z,83.67
2022-09-11T22:05:10.104Z,83.81
2022-09-11T22:07:42.340Z,83.86
2022-09-11T22:10:12.825Z,83.81
2022-09-11T22:12:42.862Z,83.90
2022-09-11T22:15:12.909Z,84.00
2022-09-11T22:17:42.870Z,84.12
2022-09-11T22:20:10.924Z,84.09
2022-09-11T22:22:43.106Z,84.08
2022-09-11T22:25:11.096Z,84.16
2022-09-11T22:27:42.933Z,84.12
2022-09-11T22:30:14.411Z,84.09
2022-09-11T22:32:42.251Z,84.10
2022-09-11T22:35:10.190Z,84.51
2022-09-11T22:37:38.114Z,84.32
2022-09-11T22:40:11.340Z,84.24
2022-09-11T22:42:39.415Z,84.15
2022-09-11T22:45:12.947Z,84.11
2022-09-11T22:47:42.248Z,84.16
2022-09-11T22:50:13.294Z,84.04
2022-09-11T22:52:42.997Z,84.04
2022-09-11T22:55:11.204Z,83.92
2022-09-11T22:57:43.143Z,83.87
2022-09-11T23:00:15.093Z,83.85
2022-09-11T23:02:43.065Z,83.83
2022-09-11T23:05:32.046Z,83.87
2022-09-11T23:08:00.004Z,83.80
2022-09-11T23:10:28.259Z,83.73
2022-09-11T23:12:56.220Z,83.65
2022-09-11T23:15:31.346Z,83.65
2022-09-11T23:17:59.260Z,83.57
2022-09-11T23:20:27.169Z,83.57
2022-09-11T23:23:00.293Z,83.57
2022-09-11T23:25:28.501Z,83.56
2022-09-11T23:27:58.678Z,83.51
2022-09-11T23:30:30.241Z,83.53
2022-09-11T23:32:58.471Z,83.46
2022-09-11T23:35:26.398Z,83.39
2022-09-11T23:37:54.339Z,83.35
2022-09-11T23:40:24.387Z,83.28
2022-09-11T23:42:52.073Z,83.21
2022-09-11T23:45:20.844Z,83.09
2022-09-11T23:47:53.389Z,82.99
2022-09-11T23:50:25.153Z,82.96
2022-09-11T23:52:53.695Z,82.90
2022-09-11T23:55:26.007Z,82.90
2022-09-11T23:57:56.489Z,82.86
